Time;durP1;ratioP1;P1;durP2;ratioP2;P2;SDS_P1;SDS_P2;PMS_P1;PMS_P2;Temp;Humidity;BMP_temperature;BMP_pressure;BME280_temperature;BME280_humidity;BME280_pressure;Samples;Min_cycle;Max_cycle;Signal;HPM_P1;HPM_P2
2022/05/03 00:01:49;;;;;;;6.03;3.83;;;19.00;99.90;;;;;;4943277;28;20036;-69
2022/05/03 00:04:24;;;;;;;;;;;19.10;99.90;;;;;;4950201;28;20047;-71
2022/05/03 00:06:57;;;;;;;5.35;4.28;;;19.20;99.90;;;;;;4945162;28;19997;-70
2022/05/03 00:09:45;;;;;;;7.05;5.03;;;19.30;99.90;;;;;;4947249;28;20570;-69
2022/05/03 00:12:16;;;;;;;8.25;4.78;;;19.40;99.90;;;;;;4945595;28;20039;-71
2022/05/03 00:14:53;;;;;;;7.93;4.97;;;19.60;99.90;;;;;;4946117;28;20066;-71
2022/05/03 00:17:22;;;;;;;6.88;3.60;;;19.90;99.90;;;;;;4945614;28;20035;-69
2022/05/03 00:19:50;;;;;;;6.13;4.00;;;20.10;99.90;;;;;;4950154;28;20047;-71
2022/05/03 00:22:17;;;;;;;6.22;3.10;;;20.20;99.90;;;;;;4944376;28;20074;-69
2022/05/03 00:24:45;;;;;;;5.88;4.35;;;20.40;99.90;;;;;;4982382;28;20076;-69
2022/05/03 00:27:14;;;;;;;4.47;2.83;;;20.60;99.90;;;;;;5050434;28;20025;-71
2022/05/03 00:29:41;;;;;;;3.00;2.05;;;20.70;99.90;;;;;;5045678;28;20021;-71
2022/05/03 00:32:09;;;;;;;4.68;2.70;;;20.80;99.90;;;;;;5049596;28;20013;-69
2022/05/03 00:34:37;;;;;;;3.00;1.33;;;21.10;99.90;;;;;;5046197;28;20485;-70
2022/05/03 00:37:04;;;;;;;3.75;2.38;;;21.20;99.90;;;;;;5050299;28;20396;-69
2022/05/03 00:39:31;;;;;;;2.60;1.58;;;21.40;99.90;;;;;;5037415;28;20342;-71
2022/05/03 00:42:10;;;;;;;4.35;1.85;;;21.40;99.90;;;;;;5040254;28;20506;-68
2022/05/03 00:45:00;;;;;;;5.75;1.75;;;21.60;99.90;;;;;;5039104;28;20040;-68
2022/05/03 00:47:48;;;;;;;2.33;1.55;;;21.90;99.90;;;;;;5038214;28;20028;-68
2022/05/03 00:50:39;;;;;;;4.05;1.60;;;22.20;99.90;;;;;;5035957;28;20021;-68
2022/05/03 00:53:29;;;;;;;4.63;2.13;;;22.30;99.90;;;;;;5046716;28;20736;-69
2022/05/03 00:56:20;;;;;;;5.28;2.00;;;22.50;99.90;;;;;;5038134;28;20167;-69
2022/05/03 00:59:07;;;;;;;5.18;1.67;;;22.50;99.90;;;;;;5027236;28;20049;-69
2022/05/03 01:02:15;;;;;;;2.90;1.38;;;22.70;99.90;;;;;;5038447;28;20025;-70
2022/05/03 01:04:50;;;;;;;5.25;1.90;;;22.80;99.90;;;;;;4944610;29;20046;-72
2022/05/03 01:07:48;;;;;;;5.70;3.50;;;23.00;99.90;;;;;;4943819;29;20035;-72
2022/05/03 01:10:34;;;;;;;2.97;1.60;;;23.30;99.90;;;;;;4945751;29;20502;-72
2022/05/03 01:13:21;;;;;;;4.68;1.55;;;23.30;99.90;;;;;;4946133;29;20035;-69
2022/05/03 01:15:56;;;;;;;4.10;1.88;;;23.50;99.90;;;;;;4945581;29;20042;-68
2022/05/03 01:18:58;;;;;;;3.97;1.65;;;23.80;99.90;;;;;;4945287;29;20441;-72
2022/05/03 01:22:19;;;;;;;1.75;1.00;;;23.90;99.90;;;;;;4944319;28;20066;-72
2022/05/03 01:25:33;;;;;;;3.53;1.30;;;24.10;99.90;;;;;;4906196;29;20123;-71
2022/05/03 01:28:25;;;;;;;5.63;1.38;;;24.30;99.90;;;;;;4852744;29;20030;-72
2022/05/03 01:30:56;;;;;;;1.90;1.10;;;24.30;99.90;;;;;;4850062;29;20088;-69
2022/05/03 01:33:43;;;;;;;4.85;1.08;;;24.50;99.90;;;;;;4851502;29;20178;-72
2022/05/03 01:36:11;;;;;;;3.08;1.25;;;24.40;99.90;;;;;;4851278;29;20041;-68
2022/05/03 01:38:49;;;;;;;4.93;1.45;;;24.30;99.90;;;;;;4850458;29;20050;-69
2022/05/03 01:41:58;;;;;;;4.45;1.52;;;24.30;99.90;;;;;;4878752;29;20036;-69
2022/05/03 01:44:40;;;;;;;5.55;1.52;;;24.40;99.90;;;;;;4871772;29;20650;-73
2022/05/03 01:47:26;;;;;;;2.88;1.10;;;24.60;99.90;;;;;;4870456;29;20068;-71
2022/05/03 01:50:20;;;;;;;3.22;1.25;;;24.80;99.90;;;;;;4870270;29;20064;-64
2022/05/03 01:53:14;;;;;;;5.28;1.35;;;24.90;99.90;;;;;;4870398;29;20072;-67
2022/05/03 01:56:24;;;;;;;2.88;1.90;;;24.90;99.90;;;;;;4873613;29;20049;-69
2022/05/03 01:59:20;;;;;;;5.18;1.95;;;25.00;99.90;;;;;;4884681;29;20049;-64
2022/05/03 02:02:21;;;;;;;6.07;1.85;;;25.00;99.90;;;;;;4919871;28;20293;-64
2022/05/03 02:05:08;;;;;;;6.43;1.15;;;24.90;99.90;;;;;;4916037;29;20149;-69
2022/05/03 02:07:59;;;;;;;4.53;2.38;;;24.80;99.90;;;;;;4909551;29;20479;-69
2022/05/03 02:10:44;;;;;;;5.65;1.65;;;25.00;99.90;;;;;;4912077;29;20103;-65
2022/05/03 02:13:21;;;;;;;3.08;1.80;;;25.00;99.90;;;;;;4910940;29;20055;-70
2022/05/03 02:15:52;;;;;;;3.67;1.40;;;25.10;99.90;;;;;;4910781;29;20046;-70
2022/05/03 02:18:37;;;;;;;3.17;1.33;;;25.20;99.90;;;;;;4905499;29;20144;-64
2022/05/03 02:21:24;;;;;;;3.60;1.52;;;25.40;99.90;;;;;;4992213;28;20552;-64
2022/05/03 02:24:12;;;;;;;5.28;2.28;;;25.70;99.90;;;;;;4990562;28;20026;-64
2022/05/03 02:26:59;;;;;;;3.30;2.28;;;25.80;99.90;;;;;;4983652;28;20030;-64
2022/05/03 02:29:35;;;;;;;4.35;1.50;;;25.90;99.80;;;;;;4991198;28;20029;-64
2022/05/03 02:32:10;;;;;;;5.15;1.17;;;25.90;99.40;;;;;;4979381;28;20507;-64
2022/05/03 02:34:43;;;;;;;3.78;1.23;;;25.90;99.00;;;;;;4992968;28;20417;-70
2022/05/03 02:37:09;;;;;;;;;;;25.80;98.30;;;;;;4992977;28;20121;-64
2022/05/03 02:39:44;;;;;;;3.60;1.30;;;25.60;98.30;;;;;;4988475;28;19917;-69
2022/05/03 02:42:12;;;;;;;4.35;1.42;;;25.60;98.80;;;;;;5034679;28;20044;-66
2022/05/03 02:44:40;;;;;;;2.53;0.98;;;25.60;98.50;;;;;;5048029;28;20025;-64
2022/05/03 02:47:12;;;;;;;1.77;1.00;;;25.70;97.90;;;;;;5041266;28;20024;-65
2022/05/03 02:50:00;;;;;;;4.05;1.08;;;25.70;97.70;;;;;;5043692;28;20104;-64
2022/05/03 02:52:27;;;;;;;4.22;1.10;;;25.90;97.10;;;;;;5047566;28;20108;-64
2022/05/03 02:55:18;;;;;;;4.00;1.67;;;26.00;96.40;;;;;;5047570;28;20573;-64
2022/05/03 02:58:12;;;;;;;4.60;1.45;;;26.00;95.10;;;;;;5046450;28;20072;-69
2022/05/03 03:04:11;;;;;;;2.25;0.85;;;26.00;95.10;;;;;;5047968;28;20086;-64
2022/05/03 03:06:41;;;;;;;1.38;0.60;;;26.00;94.60;;;;;;5044081;28;20044;-64
2022/05/03 03:09:09;;;;;;;2.05;0.73;;;26.10;94.50;;;;;;5046162;28;20021;-68
2022/05/03 03:11:45;;;;;;;3.67;1.00;;;26.20;94.50;;;;;;5047871;28;20029;-66
2022/05/03 03:14:42;;;;;;;5.20;1.38;;;26.20;94.50;;;;;;5040013;28;20025;-69
2022/05/03 03:17:11;;;;;;;4.05;1.00;;;26.30;94.00;;;;;;5045005;28;20062;-64
2022/05/03 03:19:59;;;;;;;2.83;0.70;;;26.30;93.70;;;;;;5045895;28;20013;-69
2022/05/03 03:22:44;;;;;;;1.35;0.60;;;26.30;93.80;;;;;;5047508;28;20480;-69
2022/05/03 03:25:14;;;;;;;1.98;0.73;;;26.30;93.00;;;;;;5037329;28;20511;-68
2022/05/03 03:27:44;;;;;;;1.70;0.77;;;26.30;93.20;;;;;;5047767;28;20025;-70
2022/05/03 03:30:13;;;;;;;4.60;1.20;;;26.40;93.00;;;;;;5051380;28;20029;-64
2022/05/03 03:32:43;;;;;;;1.90;1.00;;;26.30;93.10;;;;;;5037551;28;20492;-68
2022/05/03 03:35:14;;;;;;;4.78;0.80;;;26.30;93.90;;;;;;5051934;28;20142;-63
2022/05/03 03:37:47;;;;;;;2.10;0.60;;;26.50;93.30;;;;;;5049899;28;20048;-64
2022/05/03 03:40:15;;;;;;;1.50;0.60;;;26.50;93.80;;;;;;5051719;28;20399;-70
2022/05/03 03:42:43;;;;;;;2.88;0.70;;;26.50;93.50;;;;;;5055774;28;20025;-70
2022/05/03 03:45:12;;;;;;;1.15;0.60;;;26.50;93.40;;;;;;5052212;28;20021;-68
2022/05/03 03:47:41;;;;;;;3.10;0.95;;;26.60;93.10;;;;;;5047050;28;20112;-70
2022/05/03 03:50:09;;;;;;;4.47;0.60;;;26.50;92.10;;;;;;5053163;28;20518;-69
2022/05/03 03:52:39;;;;;;;1.52;0.65;;;26.40;91.40;;;;;;5053102;28;20147;-63
2022/05/03 03:55:11;;;;;;;2.10;0.57;;;26.20;91.90;;;;;;5043223;28;20111;-64
2022/05/03 03:57:39;;;;;;;2.47;0.57;;;26.20;92.10;;;;;;5047211;28;20021;-64
2022/05/03 04:00:08;;;;;;;17.08;1.60;;;26.20;90.90;;;;;;5048803;28;20037;-67
2022/05/03 04:02:36;;;;;;;4.55;0.77;;;26.30;90.30;;;;;;5048006;28;20036;-63
2022/05/03 04:05:05;;;;;;;3.15;0.75;;;26.20;91.10;;;;;;5045806;28;20025;-65
2022/05/03 04:07:33;;;;;;;1.27;0.50;;;26.10;91.30;;;;;;5050505;28;20021;-68
2022/05/03 04:10:00;;;;;;;0.57;0.40;;;26.20;91.00;;;;;;5051187;28;20017;-67
2022/05/03 04:12:29;;;;;;;2.88;1.05;;;26.10;91.00;;;;;;5053000;28;20108;-67
2022/05/03 04:14:56;;;;;;;1.55;0.57;;;26.00;91.30;;;;;;5041139;28;20479;-67
2022/05/03 04:17:23;;;;;;;2.67;0.75;;;26.10;91.30;;;;;;5046380;28;20037;-68
2022/05/03 04:19:50;;;;;;;1.95;0.45;;;26.20;91.90;;;;;;5046070;28;20136;-66
2022/05/03 04:22:28;;;;;;;4.05;0.60;;;26.30;91.20;;;;;;4351356;28;10000423;-68
2022/05/03 04:24:56;;;;;;;1.98;0.63;;;26.40;91.40;;;;;;5027541;28;20453;-69
2022/05/03 04:27:23;;;;;;;1.95;0.45;;;26.40;91.40;;;;;;5046229;28;20025;-69
2022/05/03 04:29:51;;;;;;;3.38;0.90;;;26.40;91.50;;;;;;5048187;28;20284;-65
2022/05/03 04:32:18;;;;;;;3.03;1.20;;;26.50;91.90;;;;;;5035777;28;20028;-66
2022/05/03 04:34:45;;;;;;;5.25;1.52;;;26.50;91.20;;;;;;5045323;28;20039;-68
2022/05/03 04:37:13;;;;;;;8.18;1.63;;;26.30;90.40;;;;;;5040987;28;20075;-67
2022/05/03 04:39:40;;;;;;;2.45;0.90;;;26.10;90.50;;;;;;5041259;28;20020;-68
2022/05/03 04:42:08;;;;;;;2.00;0.70;;;25.90;90.90;;;;;;5039952;28;20025;-70
2022/05/03 04:44:35;;;;;;;1.25;0.50;;;25.80;90.70;;;;;;5035997;28;20427;-67
2022/05/03 04:47:02;;;;;;;1.15;0.50;;;25.70;90.20;;;;;;5043040;28;20491;-69
2022/05/03 04:49:29;;;;;;;1.10;0.65;;;25.70;90.00;;;;;;5045472;28;20119;-68
2022/05/03 04:51:56;;;;;;;1.38;0.60;;;25.40;89.90;;;;;;5041700;28;20044;-65
2022/05/03 04:54:23;;;;;;;2.08;0.70;;;25.50;90.50;;;;;;5034409;28;20072;-65
2022/05/03 04:56:57;;;;;;;3.88;0.77;;;25.60;91.40;;;;;;5044054;28;20036;-69
2022/05/03 04:59:24;;;;;;;1.77;0.65;;;25.60;91.20;;;;;;5046251;28;20021;-64
2022/05/03 05:01:51;;;;;;;2.05;0.60;;;25.80;91.40;;;;;;5042328;28;20087;-65
2022/05/03 05:04:18;;;;;;;1.70;0.70;;;25.80;91.60;;;;;;5033619;28;20441;-65
2022/05/03 05:06:45;;;;;;;3.20;0.50;;;25.80;91.50;;;;;;5038550;28;20039;-68
2022/05/03 05:09:12;;;;;;;1.92;0.45;;;25.90;91.00;;;;;;5042968;28;20032;-64
2022/05/03 05:11:39;;;;;;;1.85;0.95;;;25.70;91.00;;;;;;5043520;28;20049;-65
2022/05/03 05:14:06;;;;;;;1.48;0.52;;;25.80;91.20;;;;;;5034139;28;20026;-68
2022/05/03 05:16:33;;;;;;;1.35;0.70;;;25.80;90.80;;;;;;5042419;28;20025;-70
2022/05/03 05:19:00;;;;;;;3.03;0.93;;;25.70;90.90;;;;;;5040777;28;20029;-64
2022/05/03 05:21:26;;;;;;;2.85;0.98;;;25.70;91.30;;;;;;5040014;28;20645;-69
2022/05/03 05:23:53;;;;;;;2.85;1.27;;;25.80;90.80;;;;;;5043693;28;20483;-64
2022/05/03 05:26:20;;;;;;;4.95;1.00;;;25.90;91.30;;;;;;5038185;28;20032;-65
2022/05/03 05:28:47;;;;;;;2.13;1.10;;;26.00;90.60;;;;;;5046912;28;20025;-69
2022/05/03 05:31:15;;;;;;;2.88;1.10;;;26.10;91.10;;;;;;5036386;28;20435;-64
2022/05/03 05:33:42;;;;;;;3.33;1.95;;;26.30;91.20;;;;;;5039086;28;20151;-66
2022/05/03 05:36:08;;;;;;;3.55;1.50;;;26.30;91.20;;;;;;5040325;28;20093;-63
2022/05/03 05:38:35;;;;;;;2.53;0.68;;;26.40;91.30;;;;;;5042411;28;20467;-64
2022/05/03 05:41:12;;;;;;;8.77;6.07;;;26.50;91.30;;;;;;5038369;28;20468;-65
2022/05/03 05:43:40;;;;;;;4.05;2.92;;;26.80;91.20;;;;;;5040106;28;20025;-64
2022/05/03 05:46:07;;;;;;;6.43;2.80;;;26.90;90.60;;;;;;5041163;28;20419;-65
2022/05/03 05:48:34;;;;;;;2.05;1.15;;;27.10;90.30;;;;;;5043390;28;20541;-65
2022/05/03 05:51:01;;;;;;;2.35;0.90;;;27.20;90.20;;;;;;5037596;28;20033;-64
2022/05/03 05:53:34;;;;;;;1.92;0.70;;;27.10;90.50;;;;;;5042685;28;20391;-63
2022/05/03 05:56:02;;;;;;;1.98;0.70;;;27.10;90.40;;;;;;5037211;28;20021;-65
2022/05/03 05:58:29;;;;;;;3.08;0.80;;;27.20;90.60;;;;;;5037578;28;20368;-65
2022/05/03 06:00:56;;;;;;;2.30;0.65;;;27.10;90.20;;;;;;5044312;28;20037;-64
2022/05/03 06:03:24;;;;;;;2.55;0.77;;;27.20;90.80;;;;;;5036180;28;20037;-70
2022/05/03 06:05:51;;;;;;;2.70;0.73;;;27.10;90.40;;;;;;5040719;28;20495;-65
2022/05/03 06:08:18;;;;;;;3.80;0.77;;;27.30;90.70;;;;;;5042961;28;20308;-64
2022/05/03 06:10:45;;;;;;;3.60;0.77;;;27.40;90.30;;;;;;5037933;28;20061;-70
2022/05/03 06:13:13;;;;;;;3.63;1.20;;;27.00;90.00;;;;;;5042982;28;20394;-65
2022/05/03 06:15:40;;;;;;;3.15;1.20;;;27.10;90.10;;;;;;5041854;28;20028;-65
2022/05/03 06:18:12;;;;;;;7.07;1.38;;;27.10;89.90;;;;;;5037732;28;20021;-71
2022/05/03 06:20:39;;;;;;;2.17;1.00;;;27.00;90.20;;;;;;5043923;28;20029;-63
2022/05/03 06:23:06;;;;;;;2.80;0.93;;;26.90;90.20;;;;;;5036683;28;20104;-70
2022/05/03 06:25:33;;;;;;;1.77;0.80;;;26.70;90.80;;;;;;5043423;28;20033;-70
2022/05/03 06:28:00;;;;;;;1.52;0.82;;;26.60;91.10;;;;;;5045443;28;20032;-69
2022/05/03 06:30:27;;;;;;;3.00;1.08;;;26.60;90.90;;;;;;5046836;28;20021;-69
2022/05/03 06:32:55;;;;;;;4.63;0.88;;;26.50;91.10;;;;;;5046908;28;20078;-68
2022/05/03 06:35:22;;;;;;;1.40;0.60;;;26.50;91.10;;;;;;5047045;28;20028;-69
2022/05/03 06:37:49;;;;;;;2.58;0.57;;;26.40;91.10;;;;;;5046593;28;20182;-69
2022/05/03 06:40:16;;;;;;;2.67;0.70;;;26.20;91.50;;;;;;5045672;28;20503;-65
2022/05/03 06:42:43;;;;;;;3.30;0.70;;;26.00;92.10;;;;;;5044465;28;20065;-65
2022/05/03 06:45:11;;;;;;;3.58;0.93;;;25.80;92.20;;;;;;5046039;28;20561;-65
2022/05/03 06:47:39;;;;;;;2.50;0.90;;;25.70;92.40;;;;;;5043328;28;20268;-67
2022/05/03 06:50:07;;;;;;;3.63;1.00;;;25.30;93.00;;;;;;5046462;28;20028;-70
2022/05/03 06:52:34;;;;;;;1.25;0.50;;;25.20;93.30;;;;;;5043349;28;20021;-64
2022/05/03 06:55:01;;;;;;;2.08;0.98;;;25.00;94.10;;;;;;5044408;28;20037;-69
2022/05/03 06:57:28;;;;;;;3.30;0.93;;;24.70;94.10;;;;;;5044166;28;20091;-65
2022/05/03 06:59:56;;;;;;;1.50;0.52;;;24.30;94.50;;;;;;5043810;28;20076;-66
2022/05/03 07:02:23;;;;;;;1.92;0.98;;;24.10;94.90;;;;;;5044726;28;20119;-69
2022/05/03 07:04:50;;;;;;;1.75;0.80;;;23.60;96.20;;;;;;5042065;28;20459;-74
2022/05/03 07:07:17;;;;;;;1.80;1.10;;;23.10;97.20;;;;;;5042383;28;20057;-69
2022/05/03 07:09:44;;;;;;;2.80;1.23;;;22.70;98.20;;;;;;5024496;28;20037;-68
2022/05/03 07:12:11;;;;;;;2.65;1.02;;;22.30;98.70;;;;;;5044320;28;20393;-69
2022/05/03 07:14:38;;;;;;;2.53;1.17;;;21.90;99.20;;;;;;5044833;28;20435;-69
2022/05/03 07:17:06;;;;;;;4.07;1.65;;;21.60;99.90;;;;;;5043387;28;20212;-67
2022/05/03 07:25:03;;;;;;;2.17;1.10;;;20.90;99.90;;;;;;5043520;28;20032;-71
2022/05/03 07:27:30;;;;;;;2.20;1.20;;;20.60;99.90;;;;;;5042003;28;20052;-70
2022/05/03 07:29:57;;;;;;;4.05;1.48;;;20.40;99.90;;;;;;5043162;28;20028;-69
2022/05/03 07:32:24;;;;;;;2.25;1.13;;;20.20;99.90;;;;;;5045124;28;20029;-69
2022/05/03 07:34:52;;;;;;;3.33;1.73;;;20.00;99.90;;;;;;5041994;28;20094;-69
2022/05/03 07:37:19;;;;;;;4.60;1.40;;;20.00;99.90;;;;;;5042700;28;20090;-69
2022/05/03 07:39:46;;;;;;;3.65;1.42;;;20.10;99.90;;;;;;5026542;28;20049;-69
2022/05/03 07:42:13;;;;;;;3.75;1.63;;;20.10;99.90;;;;;;5043975;28;20498;-74
2022/05/03 07:44:40;;;;;;;3.95;1.63;;;19.80;99.90;;;;;;5046485;28;20052;-73
2022/05/03 07:47:07;;;;;;;2.08;1.35;;;19.70;99.90;;;;;;5016889;28;20021;-70
2022/05/03 07:49:34;;;;;;;3.40;1.40;;;19.60;99.90;;;;;;5021734;28;20106;-70
2022/05/03 07:52:01;;;;;;;3.45;1.75;;;19.50;99.90;;;;;;5041850;28;20025;-70
2022/05/03 07:54:28;;;;;;;6.30;1.73;;;19.40;99.90;;;;;;5041808;28;20024;-68
2022/05/03 07:56:55;;;;;;;6.38;2.38;;;19.40;99.90;;;;;;5039386;28;20479;-69
2022/05/03 07:59:25;;;;;;;6.75;1.88;;;19.40;99.90;;;;;;5039567;28;20086;-68
2022/05/03 08:01:54;;;;;;;5.97;2.60;;;19.30;99.90;;;;;;5039825;28;20017;-68
2022/05/03 08:04:22;;;;;;;3.40;1.80;;;19.30;99.90;;;;;;5037180;28;20025;-70
2022/05/03 08:06:49;;;;;;;4.25;2.00;;;19.40;99.90;;;;;;5039596;28;20233;-67
2022/05/03 08:09:15;;;;;;;5.15;1.70;;;19.30;99.90;;;;;;5039628;28;20064;-68
2022/05/03 08:11:43;;;;;;;8.13;2.00;;;19.10;99.90;;;;;;5037234;28;20551;-69
2022/05/03 08:14:10;;;;;;;5.90;1.92;;;19.00;99.90;;;;;;5041152;28;20426;-67
2022/05/03 08:16:38;;;;;;;5.97;1.73;;;19.00;99.90;;;;;;5045449;28;20104;-68
2022/05/03 08:19:05;;;;;;;3.60;1.52;;;19.10;99.90;;;;;;5044500;28;20029;-68
2022/05/03 08:21:35;;;;;;;4.53;1.70;;;19.10;99.90;;;;;;5040348;28;20029;-68
2022/05/03 08:24:03;;;;;;;5.50;1.75;;;18.90;99.90;;;;;;5040738;28;20433;-65
2022/05/03 08:26:31;;;;;;;5.70;1.58;;;19.00;99.90;;;;;;5041061;28;20210;-67
2022/05/03 08:28:58;;;;;;;4.10;1.40;;;18.90;99.90;;;;;;5043467;28;20048;-70
2022/05/03 08:31:25;;;;;;;5.78;2.28;;;18.80;99.90;;;;;;5039376;28;20021;-68
2022/05/03 08:33:52;;;;;;;4.82;1.83;;;18.70;99.90;;;;;;5041777;28;20111;-68
2022/05/03 08:36:19;;;;;;;5.63;1.98;;;18.60;99.90;;;;;;5041076;28;20029;-68
2022/05/03 08:44:16;;;;;;;5.13;2.17;;;18.40;99.90;;;;;;5037183;28;20106;-68
2022/05/03 08:46:43;;;;;;;5.20;2.10;;;18.30;99.90;;;;;;5036574;28;20459;-65
2022/05/03 08:49:13;;;;;;;5.72;1.88;;;18.30;99.90;;;;;;5033976;28;20021;-66
2022/05/03 08:51:44;;;;;;;7.47;2.33;;;18.20;99.90;;;;;;5036595;28;20040;-65
2022/05/03 08:54:11;;;;;;;7.00;2.05;;;18.00;99.90;;;;;;5038669;28;20032;-67
2022/05/03 08:56:38;;;;;;;4.75;2.08;;;18.00;99.90;;;;;;5041858;28;20455;-68
2022/05/03 08:59:05;;;;;;;4.95;2.40;;;18.00;99.90;;;;;;5042998;28;20029;-67
2022/05/03 09:01:32;;;;;;;5.72;2.22;;;18.10;99.90;;;;;;5040485;28;20116;-66
2022/05/03 09:04:00;;;;;;;6.03;2.42;;;18.10;99.90;;;;;;5039241;28;20044;-65
2022/05/03 09:06:47;;;;;;;7.28;2.08;;;18.10;99.90;;;;;;5041121;28;20029;-67
2022/05/03 09:09:16;;;;;;;4.95;2.33;;;18.00;99.90;;;;;;5042728;28;20206;-66
2022/05/03 09:11:48;;;;;;;4.70;2.25;;;18.00;99.90;;;;;;5043218;28;20021;-67
2022/05/03 09:14:35;;;;;;;6.30;2.75;;;17.90;99.90;;;;;;5044669;28;20104;-69
2022/05/03 09:17:02;;;;;;;6.70;2.35;;;17.80;99.90;;;;;;5045072;28;20032;-69
2022/05/03 09:19:30;;;;;;;4.63;2.22;;;17.80;99.90;;;;;;5042395;28;20135;-67
2022/05/03 09:24:58;;;;;;;4.00;2.08;;;17.60;99.90;;;;;;5044679;28;20032;-69
2022/05/03 09:27:27;;;;;;;4.85;1.77;;;17.60;99.90;;;;;;5045467;28;20132;-69
2022/05/03 09:30:08;;;;;;;5.90;2.03;;;17.50;99.90;;;;;;5044623;28;20038;-68
2022/05/03 09:32:44;;;;;;;4.40;1.83;;;17.50;99.90;;;;;;5043085;28;20028;-70
2022/05/03 09:35:35;;;;;;;5.30;2.00;;;17.60;99.90;;;;;;5040110;28;20036;-69
2022/05/03 09:38:04;;;;;;;6.03;2.25;;;17.60;99.90;;;;;;4936982;28;20075;-68
2022/05/03 09:40:41;;;;;;;7.22;1.90;;;17.80;99.90;;;;;;4941619;28;20076;-66
2022/05/03 09:43:08;;;;;;;4.90;2.13;;;17.80;99.90;;;;;;4936955;28;21543;-66
2022/05/03 09:45:36;;;;;;;4.50;1.80;;;17.60;99.90;;;;;;4938151;28;20035;-67
2022/05/03 09:48:03;;;;;;;5.55;2.13;;;17.60;99.90;;;;;;4937072;28;20051;-68
2022/05/03 09:50:33;;;;;;;4.78;2.20;;;17.60;99.90;;;;;;4939419;28;20158;-68
2022/05/03 09:53:12;;;;;;;5.45;2.05;;;17.50;99.90;;;;;;4940055;28;20158;-70
2022/05/03 09:55:41;;;;;;;6.28;2.53;;;17.40;99.90;;;;;;4938363;28;20054;-68
2022/05/03 09:58:10;;;;;;;5.55;1.80;;;17.30;99.90;;;;;;4938543;28;20062;-68
2022/05/03 10:00:40;;;;;;;8.10;2.13;;;17.30;99.90;;;;;;4944546;28;20064;-65
2022/05/03 10:03:09;;;;;;;4.47;1.90;;;17.20;99.90;;;;;;4942195;28;20043;-67
2022/05/03 10:05:38;;;;;;;5.88;2.30;;;17.10;99.90;;;;;;4945790;28;20071;-67
2022/05/03 10:08:07;;;;;;;3.88;1.80;;;17.10;99.90;;;;;;4943883;28;20405;-67
2022/05/03 10:10:35;;;;;;;4.40;1.77;;;17.10;99.90;;;;;;4942250;28;20023;-66
2022/05/03 10:13:02;;;;;;;3.20;1.80;;;17.10;99.90;;;;;;4941100;28;20569;-70
2022/05/03 10:21:38;;;;;;;5.50;2.95;;;17.30;99.90;;;;;;5041176;28;20114;-66
2022/05/03 10:24:12;;;;;;;8.48;3.15;;;17.30;99.90;;;;;;5023591;28;20403;-67
2022/05/03 10:27:06;;;;;;;7.65;2.95;;;17.40;99.90;;;;;;5039802;28;20090;-72
2022/05/03 10:29:36;;;;;;;5.60;2.80;;;17.20;99.90;;;;;;5037866;28;20497;-68
2022/05/03 10:32:09;;;;;;;5.65;2.15;;;17.30;99.90;;;;;;5040996;28;20029;-71
2022/05/03 10:34:59;;;;;;;6.18;1.85;;;17.30;99.90;;;;;;5042907;28;20112;-69
2022/05/03 10:37:33;;;;;;;6.35;1.90;;;17.10;99.90;;;;;;5083630;22;20506;-68
2022/05/03 10:40:07;;;;;;;4.55;1.88;;;17.00;99.90;;;;;;5053349;28;20042;-69
2022/05/03 10:42:34;;;;;;;5.82;1.55;;;17.00;99.90;;;;;;5047906;28;20090;-67
2022/05/03 10:45:24;;;;;;;5.88;1.85;;;16.90;99.90;;;;;;5060208;28;20111;-66
2022/05/03 10:47:54;;;;;;;3.10;2.05;;;16.80;99.90;;;;;;5047543;28;20028;-69
2022/05/03 10:50:26;;;;;;;3.95;2.15;;;16.70;99.90;;;;;;5049324;28;20387;-68
2022/05/03 10:52:59;;;;;;;3.05;2.00;;;16.50;99.90;;;;;;5049280;28;20013;-68
2022/05/03 10:56:01;;;;;;;3.88;2.00;;;16.30;99.90;;;;;;5049198;28;20150;-67
2022/05/03 10:58:34;;;;;;;3.13;1.58;;;16.10;99.90;;;;;;4968551;28;20645;-69
2022/05/03 11:01:23;;;;;;;4.85;1.95;;;16.00;99.90;;;;;;4968802;28;20453;-66
2022/05/03 11:04:00;;;;;;;6.07;1.92;;;16.00;99.90;;;;;;4967792;28;20047;-67
2022/05/03 11:06:27;;;;;;;8.05;2.58;;;16.00;99.90;;;;;;4966856;28;20109;-66
2022/05/03 11:11:39;;;;;;;5.80;2.30;;;16.00;99.90;;;;;;4967962;28;20034;-67
2022/05/03 11:14:27;;;;;;;5.70;2.00;;;15.90;99.90;;;;;;4967949;28;20522;-69
2022/05/03 11:17:08;;;;;;;5.53;2.17;;;15.80;99.90;;;;;;4968119;28;20053;-67
2022/05/03 11:19:36;;;;;;;8.23;2.10;;;15.70;99.90;;;;;;4968059;28;20031;-68
2022/05/03 11:22:10;;;;;;;7.18;2.50;;;15.50;99.90;;;;;;4969014;28;20043;-67
2022/05/03 11:24:42;;;;;;;8.35;2.22;;;15.50;99.90;;;;;;4968388;28;20030;-68
2022/05/03 11:27:10;;;;;;;10.73;2.95;;;15.50;99.90;;;;;;4967362;28;20036;-69
2022/05/03 11:29:49;;;;;;;5.03;2.08;;;15.50;99.90;;;;;;4968342;28;20444;-68
2022/05/03 11:32:27;;;;;;;5.95;2.10;;;15.50;99.90;;;;;;4967632;28;20573;-67
2022/05/03 11:35:04;;;;;;;3.63;1.70;;;15.50;99.90;;;;;;4994188;28;20033;-66
2022/05/03 11:37:31;;;;;;;8.95;2.15;;;15.30;99.90;;;;;;5048155;28;20510;-67
2022/05/03 11:40:07;;;;;;;4.72;1.88;;;15.30;99.90;;;;;;5049139;28;20024;-69
2022/05/03 11:42:39;;;;;;;6.63;2.22;;;15.20;99.90;;;;;;5041363;28;20063;-68
2022/05/03 11:45:07;;;;;;;6.90;2.40;;;15.10;99.90;;;;;;5048972;28;20033;-68
2022/05/03 11:47:37;;;;;;;6.00;2.40;;;15.10;99.90;;;;;;5050691;28;20511;-67
2022/05/03 11:50:05;;;;;;;5.53;2.25;;;15.00;99.90;;;;;;5050410;28;20048;-67
2022/05/03 11:58:03;;;;;;;3.97;1.95;;;14.90;99.90;;;;;;5052859;28;20035;-66
2022/05/03 12:00:31;;;;;;;4.32;2.10;;;14.90;99.90;;;;;;5048215;28;20089;-67
2022/05/03 12:03:02;;;;;;;4.15;2.13;;;14.90;99.90;;;;;;5049629;28;20029;-67
2022/05/03 12:05:31;;;;;;;7.60;2.72;;;15.00;99.90;;;;;;5052777;28;20017;-68
2022/05/03 12:08:01;;;;;;;3.83;2.08;;;15.00;99.90;;;;;;5060202;28;20134;-67
2022/05/03 12:10:38;;;;;;;3.30;1.77;;;15.00;99.90;;;;;;5052384;28;20013;-68
2022/05/03 12:13:25;;;;;;;3.83;1.98;;;15.00;99.90;;;;;;5058999;28;20385;-67
2022/05/03 12:15:58;;;;;;;7.50;2.25;;;15.00;99.90;;;;;;5052083;28;20056;-67
2022/05/03 12:18:43;;;;;;;4.80;2.13;;;15.00;99.90;;;;;;5052389;28;20052;-69
2022/05/03 12:21:30;;;;;;;5.60;2.40;;;15.00;99.90;;;;;;5032605;28;20025;-65
2022/05/03 12:24:06;;;;;;;7.25;2.10;;;15.00;99.90;;;;;;5052718;28;20025;-66
2022/05/03 12:26:38;;;;;;;5.97;2.63;;;15.00;99.90;;;;;;5051810;28;20147;-70
2022/05/03 12:29:08;;;;;;;5.45;2.25;;;15.10;99.90;;;;;;5049690;28;20041;-66
2022/05/03 12:31:46;;;;;;;7.78;2.65;;;15.10;99.90;;;;;;5048385;28;20036;-69
2022/05/03 12:34:25;;;;;;;7.32;2.67;;;15.10;99.90;;;;;;5047934;28;20025;-67
2022/05/03 12:37:02;;;;;;;4.13;2.35;;;15.00;99.90;;;;;;5053187;28;20092;-70
2022/05/03 12:39:34;;;;;;;4.88;2.47;;;15.00;99.90;;;;;;5059261;28;20033;-69
2022/05/03 12:42:13;;;;;;;4.13;2.95;;;14.90;99.90;;;;;;5052028;28;20035;-68
2022/05/03 12:44:54;;;;;;;4.13;2.40;;;14.80;99.90;;;;;;5050339;28;20033;-67
2022/05/03 12:47:24;;;;;;;7.45;3.58;;;14.80;99.90;;;;;;5049744;28;20131;-67
2022/05/03 12:49:51;;;;;;;6.60;3.25;;;14.70;99.90;;;;;;5048596;28;20017;-67
2022/05/03 12:52:18;;;;;;;6.70;2.80;;;14.70;99.90;;;;;;5050224;28;20043;-67
2022/05/03 12:54:48;;;;;;;8.93;3.05;;;14.60;99.90;;;;;;5050748;28;20045;-67
2022/05/03 13:00:02;;;;;;;6.07;3.00;;;14.70;99.90;;;;;;5050273;28;20055;-66
2022/05/03 13:02:29;;;;;;;7.18;3.47;;;14.60;99.90;;;;;;5051470;28;20049;-68
2022/05/03 13:04:56;;;;;;;6.45;3.67;;;14.60;99.90;;;;;;5050491;28;20024;-68
2022/05/03 13:07:23;;;;;;;7.22;3.20;;;14.50;99.90;;;;;;5052007;28;20485;-68
2022/05/03 13:09:50;;;;;;;6.15;3.78;;;14.50;99.90;;;;;;5049563;28;20020;-68
2022/05/03 13:12:17;;;;;;;10.02;3.90;;;14.50;99.90;;;;;;5051287;28;20108;-68
2022/05/03 13:14:47;;;;;;;6.03;3.45;;;14.40;99.90;;;;;;5049549;28;20033;-67
2022/05/03 13:17:14;;;;;;;7.70;3.40;;;14.40;99.90;;;;;;5051576;28;20361;-67
2022/05/03 13:19:41;;;;;;;6.18;3.78;;;14.40;99.90;;;;;;5048966;28;20063;-67
2022/05/03 13:22:08;;;;;;;7.05;2.92;;;14.30;99.90;;;;;;5049732;28;20063;-66
2022/05/03 13:24:35;;;;;;;6.63;3.50;;;14.40;99.90;;;;;;5047515;28;20026;-67
2022/05/03 13:27:02;;;;;;;6.15;3.25;;;14.30;99.90;;;;;;5049656;28;20113;-70
2022/05/03 13:29:30;;;;;;;8.60;3.13;;;14.30;99.90;;;;;;5040245;28;20027;-68
2022/05/03 13:31:57;;;;;;;11.43;3.30;;;14.20;99.90;;;;;;5048470;28;20047;-67
2022/05/03 13:34:24;;;;;;;8.43;3.85;;;14.20;99.90;;;;;;5048177;28;20160;-69
2022/05/03 13:42:21;;;;;;;6.20;3.80;;;14.10;99.90;;;;;;5037048;28;20434;-68
2022/05/03 13:44:48;;;;;;;8.02;3.55;;;14.00;99.90;;;;;;5046893;28;20043;-66
2022/05/03 13:47:15;;;;;;;6.72;3.78;;;14.00;99.90;;;;;;5049372;28;20035;-67
2022/05/03 13:49:45;;;;;;;6.45;3.72;;;14.00;99.90;;;;;;5030588;28;20112;-68
2022/05/03 13:52:12;;;;;;;7.00;3.72;;;13.90;99.90;;;;;;5048471;28;20075;-68
2022/05/03 13:54:39;;;;;;;9.07;4.82;;;13.90;99.90;;;;;;5050452;28;20091;-69
2022/05/03 13:57:07;;;;;;;6.75;3.90;;;13.80;99.90;;;;;;5050329;28;20048;-68